Time;durP1;ratioP1;P1;durP2;ratioP2;P2;SDS_P1;SDS_P2;PMS_P1;PMS_P2;Temp;Humidity;BMP_temperature;BMP_pressure;BME280_temperature;BME280_humidity;BME280_pressure;Samples;Min_cycle;Max_cycle;Signal;HPM_P1;HPM_P2
2022/01/01 00:00:57;239062.00;0.80;413.14;0.00;0.00;0.62;;;;;16.00;1.00;;;;;;2256334;61;1077;-90
2022/01/01 00:06:01;795506.00;2.65;1373.29;0.00;0.00;0.62;;;;;16.20;1.00;;;;;;2285779;60;1360;-88
2022/01/01 00:13:45;889514.00;2.97;1537.71;0.00;0.00;0.62;;;;;16.00;1.00;;;;;;2289437;60;1414;-89
2022/01/01 00:16:24;319492.00;1.06;551.42;0.00;0.00;0.62;;;;;15.70;1.00;;;;;;2279399;61;1411;-90
2022/01/01 00:24:00;1269241.00;4.23;2215.92;177869.00;0.59;307.82;;;;;15.40;1.00;;;;;;2286470;61;1147;-90
2022/01/01 00:46:45;720240.00;2.40;1242.35;0.00;0.00;0.62;;;;;15.60;1.00;;;;;;2286608;60;1283;-89
2022/01/01 00:49:22;;;;;;;;;;;;;;;;;;;;;
2022/01/01 00:54:34;1165905.00;3.89;2028.70;58385.00;0.19;101.68;;;;;15.70;1.00;;;;;;2286196;60;1420;-88
2022/01/01 00:57:13;121326.00;0.40;210.37;0.00;0.00;0.62;;;;;15.80;1.00;;;;;;2276355;61;1533;-90
2022/01/01 00:59:43;203102.00;0.68;351.26;0.00;0.00;0.62;;;;;15.90;1.00;;;;;;2268239;61;2001;-89
2022/01/01 01:15:10;969819.00;3.23;1679.09;82838.00;0.28;143.94;;;;;15.40;1.00;;;;;;2278419;61;1403;-87
2022/01/01 01:17:37;133914832.00;446.38;97314616.00;133680960.00;445.60;96805136.00;;;;;15.30;1.00;;;;;;2269724;61;1356;-88
2022/01/01 01:28:04;;;;;;;;;;;;;;;;;;;;;
2022/01/01 01:30:36;929797.00;3.10;1608.51;41078.00;0.14;71.75;;;;;14.00;1.00;;;;;;2260062;61;1118;-90
2022/01/01 01:33:09;958299.00;3.19;1658.75;76439.00;0.25;132.89;;;;;14.00;1.00;;;;;;2256065;61;1107;-89
2022/01/01 01:35:39;434476.00;1.45;749.08;0.00;0.00;0.62;;;;;14.20;1.00;;;;;;2244188;61;1063;-88
2022/01/01 01:38:27;654978.00;2.18;1129.25;0.00;0.00;0.62;;;;;14.60;1.00;;;;;;2244267;61;1476;-89
2022/01/01 01:41:02;646862.00;2.16;1115.21;0.00;0.00;0.62;;;;;14.40;1.00;;;;;;2243783;61;1927;-89
2022/01/01 01:43:30;222279.00;0.74;384.26;0.00;0.00;0.62;;;;;14.50;1.00;;;;;;2232275;62;977;-89
2022/01/01 01:48:32;882213.00;2.94;1524.90;0.00;0.00;0.62;;;;;14.60;1.00;;;;;;2282303;61;1256;-91
2022/01/01 01:51:03;1043820.00;3.48;1810.24;160954.00;0.54;278.68;;;;;13.80;1.00;;;;;;2272109;61;935;-90
2022/01/01 01:53:38;1000024.00;3.33;1732.51;83621.00;0.28;145.29;;;;;12.80;1.00;;;;;;2264120;61;981;-90
2022/01/01 02:03:59;677784.00;2.26;1168.73;88885.00;0.30;154.38;;;;;12.10;1.00;;;;;;2267977;61;977;-88
2022/01/01 02:06:26;427631.00;1.43;737.31;0.00;0.00;0.62;;;;;12.30;3.00;;;;;;2261298;61;989;-87
2022/01/01 02:08:55;489747.00;1.63;844.17;7104.00;0.02;12.93;;;;;12.50;1.00;;;;;;2267875;61;1408;-87
2022/01/01 02:11:23;368137.00;1.23;635.03;0.00;0.00;0.62;;;;;12.90;2.40;;;;;;2267980;61;1184;-87
2022/01/01 02:14:03;155059.00;0.52;268.53;0.00;0.00;0.62;;;;;12.50;1.00;;;;;;2267895;61;1279;-87
2022/01/01 02:19:21;330281.00;1.10;569.97;0.00;0.00;0.62;;;;;12.30;1.20;;;;;;2267826;61;2004;-87
2022/01/01 02:21:50;412030.00;1.37;710.49;0.00;0.00;0.62;;;;;12.90;1.00;;;;;;2267807;61;1737;-88
2022/01/01 02:24:16;249591.00;0.83;431.25;0.00;0.00;0.62;;;;;13.30;1.30;;;;;;2263593;61;1121;-88
2022/01/01 02:26:43;363098.00;1.21;626.37;39744.00;0.13;69.45;;;;;13.40;1.00;;;;;;2263819;61;1097;-87
2022/01/01 02:29:10;265121.00;0.88;457.95;0.00;0.00;0.62;;;;;13.40;1.00;;;;;;2263706;61;1336;-88
2022/01/01 02:31:37;368818.00;1.23;636.21;0.00;0.00;0.62;;;;;13.50;1.00;;;;;;2263865;61;1112;-87
2022/01/01 02:34:06;373710.00;1.25;644.61;19500.00;0.06;34.40;;;;;13.70;1.00;;;;;;2263862;61;1180;-88
2022/01/01 02:36:35;256838.00;0.86;443.71;0.00;0.00;0.62;;;;;13.10;1.00;;;;;;2263709;61;1096;-88
2022/01/01 02:39:11;357687.00;1.19;617.07;0.00;0.00;0.62;;;;;12.70;1.00;;;;;;2256955;61;1922;-88
2022/01/01 02:41:38;420287.00;1.40;724.68;16289.00;0.05;28.84;;;;;12.50;1.00;;;;;;2270469;61;1087;-88
2022/01/01 02:44:06;490348.00;1.63;845.21;0.00;0.00;0.62;;;;;12.50;1.00;;;;;;2284566;60;1175;-86
2022/01/01 02:46:34;315530.00;1.05;544.61;0.00;0.00;0.62;;;;;12.60;1.00;;;;;;2277603;60;1086;-86
2022/01/01 02:49:01;838166.00;2.79;1447.77;130442.00;0.43;226.09;;;;;12.70;1.00;;;;;;2284634;60;1422;-86
2022/01/01 02:51:28;463992.00;1.55;799.85;18545.00;0.06;32.75;;;;;12.60;1.00;;;;;;2274232;60;1069;-86
2022/01/01 02:53:55;334596.00;1.12;577.39;29944.00;0.10;52.49;;;;;11.60;1.00;;;;;;2284552;60;968;-85
2022/01/01 02:56:24;386039.00;1.29;665.81;0.00;0.00;0.62;;;;;10.10;1.00;;;;;;2275990;61;1036;-85
2022/01/01 02:58:51;445810.00;1.49;768.58;0.00;0.00;0.62;;;;;9.10;4.60;;;;;;2269223;61;1405;-88
2022/01/01 03:01:18;378835.00;1.26;653.42;44424.00;0.15;77.54;;;;;8.90;7.60;;;;;;2275749;61;1926;-87
2022/01/01 03:03:46;300689.00;1.00;519.10;0.00;0.00;0.62;;;;;9.20;9.70;;;;;;2267562;61;1018;-87
2022/01/01 03:06:19;296353.00;0.99;511.65;0.00;0.00;0.62;;;;;10.20;4.90;;;;;;2257678;61;1165;-87
2022/01/01 03:08:46;318620.00;1.06;549.93;0.00;0.00;0.62;;;;;11.10;4.90;;;;;;2259642;61;1259;-87
2022/01/01 03:11:13;312505.00;1.04;539.42;0.00;0.00;0.62;;;;;11.40;1.00;;;;;;2259688;61;945;-87
2022/01/01 03:13:41;332087.00;1.11;573.07;0.00;0.00;0.62;;;;;11.40;3.40;;;;;;2250578;61;952;-87
2022/01/01 03:16:08;396631.00;1.32;684.01;31653.00;0.11;55.44;;;;;11.50;1.00;;;;;;2263673;61;1107;-86
2022/01/01 03:18:35;296382.00;0.99;511.70;0.00;0.00;0.62;;;;;11.60;2.00;;;;;;2264116;61;1372;-86
2022/01/01 03:21:02;229636.00;0.77;396.92;0.00;0.00;0.62;;;;;11.80;1.00;;;;;;2265469;61;1923;-86
2022/01/01 03:23:29;257125.00;0.86;444.20;0.00;0.00;0.62;;;;;11.50;1.00;;;;;;2272466;61;1161;-85
2022/01/01 03:25:55;371677.00;1.24;641.12;0.00;0.00;0.62;;;;;11.20;1.00;;;;;;2272438;61;1183;-86
2022/01/01 03:28:22;313367.00;1.04;540.90;0.00;0.00;0.62;;;;;10.90;3.00;;;;;;2272340;61;1400;-87
2022/01/01 03:30:51;270608.00;0.90;467.39;0.00;0.00;0.62;;;;;11.10;4.30;;;;;;2272005;61;1150;-87
2022/01/01 03:33:18;520473.00;1.73;897.08;85515.00;0.29;148.56;;;;;11.10;3.70;;;;;;2278914;60;1071;-86
2022/01/01 03:35:47;502636.00;1.68;866.36;7580.00;0.03;13.76;;;;;11.30;3.70;;;;;;2284990;60;1051;-87
2022/01/01 03:38:14;650738.00;2.17;1121.91;0.00;0.00;0.62;;;;;11.70;1.40;;;;;;2284919;60;1324;-87
2022/01/01 03:40:41;411143.00;1.37;708.96;18886.00;0.06;33.34;;;;;12.10;3.80;;;;;;2284948;61;2010;-87
2022/01/01 03:43:08;223624.00;0.75;386.58;0.00;0.00;0.62;;;;;12.30;1.00;;;;;;2285137;60;1149;-85
2022/01/01 03:45:36;226058.00;0.75;390.77;0.00;0.00;0.62;;;;;12.40;4.70;;;;;;2285035;61;1144;-87
2022/01/01 03:48:05;322172.00;1.07;556.03;0.00;0.00;0.62;;;;;12.90;1.00;;;;;;2277787;60;1480;-86
2022/01/01 03:50:32;286294.00;0.95;494.36;0.00;0.00;0.62;;;;;12.60;1.00;;;;;;2285033;61;1161;-87
2022/01/01 03:52:59;377645.00;1.26;651.38;0.00;0.00;0.62;;;;;12.40;1.00;;;;;;2284998;61;1189;-87
2022/01/01 03:55:26;408333.00;1.36;704.13;0.00;0.00;0.62;;;;;12.50;1.00;;;;;;2274520;61;1156;-87
2022/01/01 03:57:53;476950.00;1.59;822.15;0.00;0.00;0.62;;;;;12.80;1.00;;;;;;2277711;60;1422;-87
2022/01/01 04:00:20;219293.00;0.73;379.13;0.00;0.00;0.62;;;;;12.60;1.00;;;;;;2285034;60;1978;-87
2022/01/01 04:02:48;301207.00;1.00;519.99;0.00;0.00;0.62;;;;;12.50;1.00;;;;;;2285059;61;970;-87
2022/01/01 04:05:16;146094.00;0.49;253.08;0.00;0.00;0.62;;;;;12.70;1.00;;;;;;2274643;60;1267;-87
2022/01/01 04:07:43;196052.00;0.65;339.13;0.00;0.00;0.62;;;;;12.50;1.00;;;;;;2285111;60;1113;-87
2022/01/01 04:10:11;204846.00;0.68;354.26;0.00;0.00;0.62;;;;;12.40;1.00;;;;;;2285016;60;1452;-87
2022/01/01 04:12:38;264950.00;0.88;457.66;0.00;0.00;0.62;;;;;12.20;1.00;;;;;;2277723;60;1133;-87
2022/01/01 04:15:08;276058.00;0.92;476.76;0.00;0.00;0.62;;;;;12.10;1.00;;;;;;2277651;61;1141;-87
2022/01/01 04:17:37;263047.00;0.88;454.39;0.00;0.00;0.62;;;;;12.40;1.00;;;;;;2280895;61;1049;-88
2022/01/01 04:20:06;229579.00;0.77;396.82;0.00;0.00;0.62;;;;;12.70;1.60;;;;;;2284884;61;1989;-88
2022/01/01 04:22:34;267527.00;0.89;462.09;0.00;0.00;0.62;;;;;13.30;1.00;;;;;;2277971;60;1145;-86
2022/01/01 04:25:01;258753.00;0.86;447.00;0.00;0.00;0.62;;;;;13.70;1.20;;;;;;2285101;60;1079;-85
2022/01/01 04:27:28;214418.00;0.71;370.74;0.00;0.00;0.62;;;;;13.60;1.00;;;;;;2277159;61;1000;-87
2022/01/01 04:29:55;207102.00;0.69;358.15;0.00;0.00;0.62;;;;;13.70;1.10;;;;;;2283321;61;1456;-88
2022/01/01 04:32:22;271932.00;0.91;469.67;0.00;0.00;0.62;;;;;14.00;1.00;;;;;;2274238;61;1176;-88
2022/01/01 04:34:49;204295.00;0.68;353.32;0.00;0.00;0.62;;;;;13.50;1.00;;;;;;2280894;61;1035;-88
2022/01/01 04:37:19;263108.00;0.88;454.49;0.00;0.00;0.62;;;;;13.70;1.00;;;;;;2280055;61;1047;-88
2022/01/01 04:39:49;251049.00;0.84;433.76;0.00;0.00;0.62;;;;;13.80;1.00;;;;;;2269863;61;1915;-88
2022/01/01 04:42:17;329680.00;1.10;568.94;0.00;0.00;0.62;;;;;14.00;1.00;;;;;;2267639;61;1161;-88
2022/01/01 04:44:44;253181.00;0.84;437.42;0.00;0.00;0.62;;;;;14.20;1.00;;;;;;2259603;61;994;-88
2022/01/01 04:47:11;179851.00;0.60;311.23;0.00;0.00;0.62;;;;;14.20;1.00;;;;;;2259689;61;986;-88
2022/01/01 04:49:38;342724.00;1.14;591.36;0.00;0.00;0.62;;;;;14.30;1.00;;;;;;2259593;61;1472;-88
2022/01/01 04:52:05;241670.00;0.81;417.62;0.00;0.00;0.62;;;;;14.30;1.00;;;;;;2259800;61;1086;-88
2022/01/01 04:54:33;214385.00;0.71;370.68;0.00;0.00;0.62;;;;;14.40;1.00;;;;;;2260387;61;1090;-88
2022/01/01 04:57:01;203337.00;0.68;351.67;0.00;0.00;0.62;;;;;13.70;1.00;;;;;;2260469;61;973;-88
2022/01/01 04:59:28;313354.00;1.04;540.87;0.00;0.00;0.62;;;;;13.30;1.00;;;;;;2264038;61;1373;-88
2022/01/01 05:01:55;233519.00;0.78;403.60;0.00;0.00;0.62;;;;;12.60;1.00;;;;;;2264595;61;1941;-88
2022/01/01 05:04:22;193446.00;0.64;334.64;0.00;0.00;0.62;;;;;11.90;1.00;;;;;;2271629;61;1088;-87
2022/01/01 05:06:49;256360.00;0.85;442.89;0.00;0.00;0.62;;;;;12.00;1.00;;;;;;2277062;60;1172;-88
2022/01/01 05:09:17;191034.00;0.64;330.49;0.00;0.00;0.62;;;;;11.80;1.00;;;;;;2274140;61;1301;-87
2022/01/01 05:11:44;309012.00;1.03;533.41;0.00;0.00;0.62;;;;;12.00;2.40;;;;;;2284759;61;1057;-88
2022/01/01 05:14:12;326267.00;1.09;563.07;0.00;0.00;0.62;;;;;12.30;1.00;;;;;;2284593;60;1062;-88
2022/01/01 05:16:40;264898.00;0.88;457.57;0.00;0.00;0.62;;;;;12.60;2.00;;;;;;2280556;60;1263;-88
2022/01/01 05:19:07;263788.00;0.88;455.66;0.00;0.00;0.62;;;;;12.70;1.00;;;;;;2284625;60;1323;-88
2022/01/01 05:21:36;168013.00;0.56;290.84;0.00;0.00;0.62;;;;;12.90;1.00;;;;;;2275917;61;1994;-88
2022/01/01 05:24:05;197374.00;0.66;341.40;0.00;0.00;0.62;;;;;12.90;1.00;;;;;;2276137;61;1069;-87
2022/01/01 05:26:51;128019.00;0.43;221.91;0.00;0.00;0.62;;;;;13.20;1.00;;;;;;2276298;61;1118;-86
2022/01/01 05:29:19;133686.00;0.45;231.69;0.00;0.00;0.62;;;;;13.10;1.00;;;;;;2276173;61;1469;-87
2022/01/01 05:31:47;275532.00;0.92;475.86;0.00;0.00;0.62;;;;;13.00;1.00;;;;;;2266258;61;1101;-85
2022/01/01 05:34:55;219250.00;0.73;379.05;0.00;0.00;0.62;;;;;13.00;1.00;;;;;;2266224;61;996;-86
2022/01/01 05:37:21;560870.00;1.87;966.70;90386.00;0.30;156.97;;;;;13.20;1.20;;;;;;2275416;61;1043;-88
2022/01/01 05:39:48;470282.00;1.57;810.67;90870.00;0.30;157.81;;;;;13.00;1.00;;;;;;2270478;61;1314;-88
2022/01/01 05:42:15;478101.00;1.59;824.13;87463.00;0.29;151.93;;;;;12.50;1.00;;;;;;2284317;61;1943;-88
2022/01/01 05:44:44;500802.00;1.67;863.20;109819.00;0.37;190.52;;;;;12.60;1.00;;;;;;2284462;61;1136;-88
2022/01/01 05:47:10;118723224.00;395.74;67787360.00;92206.00;0.31;160.12;;;;;12.40;1.00;;;;;;2284346;61;1140;-88
2022/01/01 05:49:37;360067.00;1.20;621.16;82331.00;0.27;143.06;;;;;12.50;1.00;;;;;;2284198;61;1468;-88
2022/01/01 05:52:05;433463.00;1.44;747.34;91865.00;0.31;159.53;;;;;12.30;1.70;;;;;;2284333;61;1249;-88
2022/01/01 05:54:32;343911.00;1.15;593.40;89445.00;0.30;155.35;;;;;12.40;1.00;;;;;;2280349;61;1177;-88
2022/01/01 05:56:59;409929.00;1.37;706.88;89717.00;0.30;155.82;;;;;12.10;1.00;;;;;;2273442;61;1100;-88
2022/01/01 05:59:26;571983.00;1.91;985.87;92129.00;0.31;159.98;;;;;11.90;1.50;;;;;;2284211;61;1326;-88
2022/01/01 06:01:54;522953.00;1.74;901.35;104674.00;0.35;181.64;;;;;11.90;1.50;;;;;;2284539;60;2030;-86
2022/01/01 06:04:21;514263.00;1.71;886.38;83916.00;0.28;145.80;;;;;12.00;2.90;;;;;;2284789;60;1018;-87
2022/01/01 06:06:48;311156.00;1.04;537.10;81822.00;0.27;142.18;;;;;12.00;1.40;;;;;;2284375;61;1023;-88
2022/01/01 06:09:15;403045.00;1.34;695.04;82545.00;0.28;143.43;;;;;12.00;1.00;;;;;;2277031;61;1337;-88
2022/01/01 06:11:42;659001.00;2.20;1136.21;134369.00;0.45;232.86;;;;;11.60;1.00;;;;;;2277021;61;1149;-88
2022/01/01 06:14:09;413341.00;1.38;712.74;90624.00;0.30;157.39;;;;;11.90;1.40;;;;;;2284490;61;1160;-88
2022/01/01 06:16:36;391985.00;1.31;676.03;85091.00;0.28;147.83;;;;;11.60;1.00;;;;;;2280520;61;1148;-88
2022/01/01 06:19:04;357536.00;1.19;616.81;97834.00;0.33;169.83;;;;;11.40;1.20;;;;;;2273860;61;1398;-87
2022/01/01 06:21:31;438736.00;1.46;756.41;84604.00;0.28;146.99;;;;;11.30;1.00;;;;;;2273810;61;1949;-88
2022/01/01 06:23:58;323570.00;1.08;558.43;89476.00;0.30;155.40;;;;;11.60;1.00;;;;;;2277168;61;1008;-88
2022/01/01 06:26:25;385973.00;1.29;665.69;85134.00;0.28;147.90;;;;;11.90;1.20;;;;;;2280410;61;1137;-88
2022/01/01 06:28:52;349214.00;1.16;602.51;84954.00;0.28;147.59;;;;;11.80;1.00;;;;;;2277019;61;1430;-88
2022/01/01 06:31:19;368835.00;1.23;636.23;98713.00;0.33;171.35;;;;;12.10;1.00;;;;;;2284339;61;1100;-88
2022/01/01 06:33:45;408650.00;1.36;704.68;92027.00;0.31;159.81;;;;;12.00;1.00;;;;;;2280330;61;1178;-88
2022/01/01 06:36:15;396196.00;1.32;683.27;87752.00;0.29;152.43;;;;;11.90;1.00;;;;;;2276921;61;1164;-88
2022/01/01 06:38:44;396948.00;1.32;684.56;91662.00;0.31;159.18;;;;;11.50;1.00;;;;;;2283774;61;1371;-88
2022/01/01 06:41:12;528937.00;1.76;911.66;87815.00;0.29;152.53;;;;;11.10;1.00;;;;;;2276720;61;1946;-89
2022/01/01 06:43:39;529854.00;1.77;913.24;85119.00;0.28;147.88;;;;;11.20;1.00;;;;;;2273288;61;1180;-88
2022/01/01 06:46:06;420381.00;1.40;724.85;99750.00;0.33;173.14;;;;;11.50;1.00;;;;;;2284577;60;1043;-86
2022/01/01 06:48:33;395503.00;1.32;682.07;91587.00;0.31;159.05;;;;;11.40;1.00;;;;;;2284653;60;1326;-87
2022/01/01 06:51:00;474765.00;1.58;818.39;89084.00;0.30;154.73;;;;;11.30;1.00;;;;;;2284584;60;1020;-86
2022/01/01 06:53:29;527830.00;1.76;909.75;99831.00;0.33;173.28;;;;;11.20;1.00;;;;;;2277817;60;982;-86
2022/01/01 06:55:56;495183.00;1.65;853.53;94941.00;0.32;164.84;;;;;11.10;1.00;;;;;;2277853;61;1020;-88
2022/01/01 06:58:23;446435.00;1.49;769.65;97076.00;0.32;168.52;;;;;11.20;1.00;;;;;;2277876;61;1426;-88
2022/01/01 07:00:50;569539.00;1.90;981.65;92587.00;0.31;160.77;;;;;10.40;1.00;;;;;;2284828;60;1978;-88
2022/01/01 07:03:23;520002.00;1.73;896.27;90649.00;0.30;157.43;;;;;9.90;1.00;;;;;;2285077;61;1036;-88
2022/01/01 07:05:50;540028.00;1.80;930.77;73370.00;0.24;127.58;;;;;9.60;1.00;;;;;;2284922;60;1156;-88
2022/01/01 07:08:17;490392.00;1.63;845.28;91998.00;0.31;159.76;;;;;10.10;3.30;;;;;;2276221;61;1392;-88
2022/01/01 07:10:45;684966.00;2.28;1181.18;75552.00;0.25;131.35;;;;;10.70;1.00;;;;;;2276387;61;1034;-88
2022/01/01 07:13:13;556934.00;1.86;959.91;92591.00;0.31;160.78;;;;;10.60;1.00;;;;;;2276571;61;968;-86
2022/01/01 07:15:40;580008.00;1.93;999.71;97964.00;0.33;170.06;;;;;10.40;1.00;;;;;;2276476;61;1208;-89
2022/01/01 07:18:07;411200.00;1.37;709.06;100557.00;0.34;174.53;;;;;10.00;1.00;;;;;;2276219;61;1450;-87
2022/01/01 07:20:34;376740.00;1.26;649.82;83208.00;0.28;144.58;;;;;10.80;2.60;;;;;;2268274;61;1920;-86
2022/01/01 07:23:01;395647.00;1.32;682.32;80895.00;0.27;140.58;;;;;11.00;1.00;;;;;;2265176;61;977;-85
2022/01/01 07:25:28;345064.00;1.15;595.38;85764.00;0.29;148.99;;;;;11.50;3.90;;;;;;2269443;61;1057;-85
2022/01/01 07:27:57;525321.00;1.75;905.43;95900.00;0.32;166.49;;;;;12.00;1.00;;;;;;2276561;61;1474;-86
2022/01/01 07:30:24;516429.00;1.72;890.11;85305.00;0.28;148.20;;;;;12.00;1.00;;;;;;2266273;61;1098;-88
2022/01/01 07:32:51;704720.00;2.35;1215.42;90279.00;0.30;156.79;;;;;12.10;2.50;;;;;;2276665;61;1110;-85
2022/01/01 07:35:20;398869.00;1.33;687.86;90073.00;0.30;156.43;;;;;12.50;1.50;;;;;;2273266;61;998;-85
2022/01/01 07:37:47;454011.00;1.51;782.68;79812.00;0.27;138.71;;;;;12.80;1.50;;;;;;2277728;60;1390;-85
2022/01/01 07:40:16;467965.00;1.56;806.69;89086.00;0.30;154.73;;;;;12.80;1.00;;;;;;2278122;60;978;-85
2022/01/01 07:42:44;496112.00;1.65;855.13;91705.00;0.31;159.25;;;;;12.90;1.40;;;;;;2278032;61;1930;-87
2022/01/01 07:45:15;464820.00;1.55;801.28;98251.00;0.33;170.55;;;;;13.00;1.00;;;;;;2284913;60;1030;-87
2022/01/01 07:47:42;388675.00;1.30;670.34;89984.00;0.30;156.28;;;;;13.10;1.00;;;;;;2281197;61;1181;-87
2022/01/01 07:50:11;542298.00;1.81;934.68;78647.00;0.26;136.70;;;;;13.40;1.00;;;;;;2274568;60;1366;-87
2022/01/01 07:52:38;418156.00;1.39;721.02;91763.00;0.31;159.35;;;;;13.50;1.00;;;;;;2274684;60;1054;-88
2022/01/01 07:55:06;393071.00;1.31;677.89;96490.00;0.32;167.51;;;;;13.50;1.00;;;;;;2274555;60;1169;-88
2022/01/01 07:57:33;507621.00;1.69;874.95;97843.00;0.33;169.85;;;;;13.20;1.00;;;;;;2276220;61;1065;-89
2022/01/01 08:02:31;1177567.00;3.93;2049.71;90275.00;0.30;156.78;;;;;11.60;1.00;;;;;;2286639;60;1970;-87
2022/01/01 08:04:59;604082.00;2.01;1041.27;90857.00;0.30;157.79;;;;;11.10;1.60;;;;;;2285155;60;1043;-87
2022/01/01 08:07:26;552495.00;1.84;952.26;88918.00;0.30;154.44;;;;;11.50;1.00;;;;;;2285070;60;1752;-90
2022/01/01 08:09:53;739109.00;2.46;1275.13;88256.00;0.29;153.30;;;;;12.00;2.60;;;;;;2285157;60;1304;-90
2022/01/01 08:12:20;742607.00;2.48;1281.21;85494.00;0.28;148.53;;;;;12.20;1.00;;;;;;2285220;60;1133;-88
2022/01/01 08:14:47;846989.00;2.82;1463.20;85505.00;0.29;148.55;;;;;12.10;2.20;;;;;;2285175;60;1117;-86
2022/01/01 08:17:15;655918.00;2.19;1130.88;91903.00;0.31;159.59;;;;;11.70;1.00;;;;;;2285078;60;1066;-85
2022/01/01 08:19:44;562873.00;1.88;970.15;92378.00;0.31;160.41;;;;;11.70;1.00;;;;;;2285094;60;1620;-89
2022/01/01 08:22:13;826925.00;2.76;1428.12;105872.00;0.35;183.71;;;;;11.90;1.00;;;;;;2276476;61;1996;-91
2022/01/01 08:24:41;917591.00;3.06;1587.04;75067.00;0.25;130.52;;;;;11.90;2.40;;;;;;2276596;61;1054;-89
2022/01/01 08:27:08;757396.00;2.52;1306.92;88720.00;0.30;154.10;;;;;12.30;1.00;;;;;;2276601;61;999;-90
2022/01/01 08:29:38;732385.00;2.44;1263.44;88333.00;0.29;153.43;;;;;12.20;1.00;;;;;;2276467;61;1558;-90
2022/01/01 08:32:06;810253.00;2.70;1399.01;89400.00;0.30;155.27;;;;;12.00;1.00;;;;;;2276429;61;1720;-90
2022/01/01 08:34:33;621742.00;2.07;1071.78;90309.00;0.30;156.84;;;;;12.00;1.00;;;;;;2268348;61;968;-90
2022/01/01 08:37:02;778243.00;2.59;1343.21;95027.00;0.32;164.99;;;;;12.10;1.00;;;;;;2268354;61;1682;-90
2022/01/01 08:39:29;536050.00;1.79;923.92;0.00;0.00;0.62;;;;;11.90;1.00;;;;;;2269729;61;1393;-86
2022/01/01 08:41:56;609318.00;2.03;1050.31;0.00;0.00;0.62;;;;;11.40;1.00;;;;;;2276509;61;1915;-86
2022/01/01 08:44:26;566251.00;1.89;975.98;112957.00;0.38;195.93;;;;;11.40;2.70;;;;;;2276536;61;926;-89
2022/01/01 08:46:53;709444.00;2.36;1223.62;0.00;0.00;0.62;;;;;12.10;3.10;;;;;;2276385;61;1465;-88
2022/01/01 08:49:20;503903.00;1.68;868.54;0.00;0.00;0.62;;;;;12.50;1.00;;;;;;2276472;61;1407;-88
2022/01/01 08:51:48;516813.00;1.72;890.78;0.00;0.00;0.62;;;;;12.80;1.00;;;;;;2277728;60;1019;-90
2022/01/01 08:54:16;463863.00;1.55;799.63;0.00;0.00;0.62;;;;;13.00;1.00;;;;;;2285024;60;1771;-89
2022/01/01 08:56:44;607841.00;2.03;1047.76;0.00;0.00;0.62;;;;;12.90;1.00;;;;;;2285082;60;1037;-89
2022/01/01 08:59:13;526379.00;1.75;907.25;25940.00;0.09;45.55;;;;;13.20;1.00;;;;;;2284936;60;1750;-87
2022/01/01 09:01:40;448892.00;1.50;773.88;119364.00;0.40;206.99;;;;;13.30;1.00;;;;;;2284977;60;1998;-90
2022/01/01 09:04:07;522453.00;1.74;900.49;79689.00;0.27;138.50;;;;;13.70;1.00;;;;;;2284953;60;1595;-88
2022/01/01 09:06:35;540079.00;1.80;930.86;0.00;0.00;0.62;;;;;13.30;1.00;;;;;;2284984;60;1643;-88
2022/01/01 09:09:03;593649.00;1.98;1023.26;0.00;0.00;0.62;;;;;13.00;1.00;;;;;;2284915;60;1672;-89
2022/01/01 09:11:33;493810.00;1.65;851.17;0.00;0.00;0.62;;;;;13.00;1.00;;;;;;2284969;60;1744;-88
2022/01/01 09:14:00;459043.00;1.53;791.34;0.00;0.00;0.62;;;;;13.00;1.00;;;;;;2285079;60;1025;-89
2022/01/01 09:16:29;668428.00;2.23;1152.53;0.00;0.00;0.62;;;;;13.10;1.00;;;;;;2284780;60;990;-90
2022/01/01 09:18:57;574078.00;1.91;989.48;39894.00;0.13;69.70;;;;;13.00;1.00;;;;;;2284314;60;1297;-88
2022/01/01 09:21:24;435502.00;1.45;750.85;0.00;0.00;0.62;;;;;12.70;1.00;;;;;;2276372;61;1994;-89
2022/01/01 09:23:52;518518.00;1.73;893.71;0.00;0.00;0.62;;;;;12.70;1.00;;;;;;2276454;61;1106;-88
2022/01/01 09:26:20;677675.00;2.26;1168.55;0.00;0.00;0.62;;;;;12.80;1.00;;;;;;2276392;61;1628;-88
2022/01/01 09:28:48;426603.00;1.42;735.54;25319.00;0.08;44.48;;;;;12.80;1.00;;;;;;2276370;61;1233;-89
2022/01/01 09:31:15;463027.00;1.54;798.19;0.00;0.00;0.62;;;;;12.60;1.00;;;;;;2276008;61;1847;-90
2022/01/01 09:33:42;653833.00;2.18;1127.27;32977.00;0.11;57.74;;;;;12.70;1.00;;;;;;2276373;61;1001;-89
2022/01/01 09:36:12;684158.00;2.28;1179.78;15952.00;0.05;28.26;;;;;12.70;1.00;;;;;;2276435;61;1035;-89
2022/01/01 09:38:39;279285.00;0.93;482.31;0.00;0.00;0.62;;;;;13.10;1.00;;;;;;2277722;60;1122;-88
2022/01/01 09:41:06;389842.00;1.30;672.34;0.00;0.00;0.62;;;;;13.20;1.00;;;;;;2284895;60;1457;-89
2022/01/01 09:43:35;812675.00;2.71;1403.24;16181.00;0.05;28.66;;;;;13.20;1.00;;;;;;2284967;60;2022;-89
2022/01/01 09:46:04;1068721.00;3.56;1854.58;108304.00;0.36;187.90;;;;;13.30;1.00;;;;;;2284951;60;1018;-90
2022/01/01 09:48:31;906100.00;3.02;1566.84;59190.00;0.20;103.08;;;;;12.90;1.00;;;;;;2284927;60;1056;-89
2022/01/01 09:51:00;927949.00;3.09;1605.26;97817.00;0.33;169.80;;;;;12.50;1.00;;;;;;2284875;60;1206;-90
2022/01/01 09:53:28;811934.00;2.71;1401.94;116094.00;0.39;201.34;;;;;12.70;1.00;;;;;;2284786;60;1650;-89
2022/01/01 09:55:57;700784.00;2.34;1208.60;16181.00;0.05;28.66;;;;;12.90;1.00;;;;;;2284842;60;1061;-89
2022/01/01 09:58:26;670926.00;2.24;1156.86;61660.00;0.21;107.35;;;;;13.20;1.00;;;;;;2284857;60;1122;-90
2022/01/01 10:00:53;635452.00;2.12;1095.47;60637.00;0.20;105.58;;;;;13.40;1.00;;;;;;2284754;60;1304;-89
2022/01/01 10:03:29;824001.00;2.75;1423.01;23542.00;0.08;41.40;;;;;13.50;1.00;;;;;;2284854;60;1928;-90
2022/01/01 10:06:01;536041.00;1.79;923.90;67353.00;0.22;117.19;;;;;13.00;1.00;;;;;;2284932;60;1000;-89
2022/01/01 10:08:29;93508.00;0.31;162.36;0.00;0.00;0.62;;;;;12.90;1.00;;;;;;2284836;60;1145;-88
2022/01/01 10:10:56;142161.00;0.47;246.30;0.00;0.00;0.62;;;;;13.10;1.00;;;;;;2284809;60;1640;-90
2022/01/01 10:13:31;181863.00;0.61;314.70;0.00;0.00;0.62;;;;;13.10;1.00;;;;;;2284863;60;1129;-90
2022/01/01 10:16:01;85931.00;0.29;149.28;0.00;0.00;0.62;;;;;12.70;1.00;;;;;;2284861;60;1022;-90
2022/01/01 10:18:30;0.00;0.00;0.62;0.00;0.00;0.62;;;;;12.80;1.00;;;;;;2284841;60;1004;-89
2022/01/01 10:21:02;149381.00;0.50;258.74;0.00;0.00;0.62;;;;;12.80;1.00;;;;;;2284894;60;1398;-89
2022/01/01 10:23:31;95357.00;0.32;165.56;0.00;0.00;0.62;;;;;13.00;1.00;;;;;;2284743;60;2014;-89
2022/01/01 10:29:14;13535.00;0.05;24.07;0.00;0.00;0.62;;;;;13.90;1.00;;;;;;2285562;60;1407;-88
2022/01/01 10:31:55;458800.00;1.53;790.92;14846.00;0.05;26.34;;;;;13.70;1.00;;;;;;2285568;60;1442;-89
2022/01/01 10:34:32;202939.00;0.68;350.98;0.00;0.00;0.62;;;;;13.90;1.00;;;;;;2285505;60;1107;-90
2022/01/01 10:37:00;206614.00;0.69;357.31;0.00;0.00;0.62;;;;;13.70;1.00;;;;;;2285506;60;1006;-88
2022/01/01 10:39:28;211499.00;0.70;365.72;10588.00;0.04;18.97;;;;;13.40;1.00;;;;;;2285454;60;1386;-89
2022/01/01 10:41:59;187148.00;0.62;323.80;0.00;0.00;0.62;;;;;13.30;1.00;;;;;;2285399;60;1931;-89
2022/01/01 10:44:38;172562.00;0.58;298.68;14275.00;0.05;25.35;;;;;13.50;1.00;;;;;;2285480;60;1628;-89
2022/01/01 10:47:07;116374.00;0.39;201.83;0.00;0.00;0.62;;;;;13.70;1.00;;;;;;2276846;61;988;-88
2022/01/01 10:52:25;2803.00;0.01;5.48;0.00;0.00;0.62;;;;;13.80;1.00;;;;;;2276169;61;1136;-90
2022/01/01 10:54:56;1158925.00;3.86;2016.13;131657.00;0.44;228.19;;;;;14.10;1.00;;;;;;2276717;61;1712;-89
2022/01/01 10:57:28;931040.00;3.10;1610.70;49892.00;0.17;87.00;;;;;14.30;1.00;;;;;;2276717;61;1585;-90
2022/01/01 11:00:14;1267487.00;4.22;2212.72;241389.00;0.80;417.14;;;;;14.30;1.00;;;;;;2276727;61;1279;-90
2022/01/01 11:02:44;49070.00;0.16;85.58;0.00;0.00;0.62;;;;;14.30;1.00;;;;;;2276684;61;1909;-89
2022/01/01 11:05:13;217714.00;0.73;376.41;0.00;0.00;0.62;;;;;14.10;1.00;;;;;;2281264;60;1681;-90
2022/01/01 11:07:51;70199.00;0.23;122.10;0.00;0.00;0.62;;;;;14.40;1.00;;;;;;2278216;60;1024;-90